createdAt,value
2018-05-07T00:00:30.674Z,15.43
2018-05-07T00:01:11.296Z,15.51
2018-05-07T00:01:51.722Z,15.51
2018-05-07T00:02:32.248Z,15.44
2018-05-07T00:03:12.775Z,15.47
2018-05-07T00:03:53.341Z,15.44
2018-05-07T00:04:33.831Z,15.44
2018-05-07T00:05:14.369Z,15.39
2018-05-07T00:05:54.972Z,15.51
2018-05-07T00:06:35.404Z,15.47
2018-05-07T00:07:15.937Z,15.43
2018-05-07T00:07:56.450Z,15.47
2018-05-07T00:08:36.973Z,15.32
2018-05-07T00:09:17.499Z,15.29
2018-05-07T00:09:58.032Z,15.38
2018-05-07T00:10:38.566Z,15.36
2018-05-07T00:11:19.078Z,15.41
2018-05-07T00:11:59.597Z,15.34
2018-05-07T00:12:40.111Z,15.38
2018-05-07T00:13:20.639Z,15.36
2018-05-07T00:14:01.158Z,15.36
2018-05-07T00:14:41.659Z,15.38
2018-05-07T00:15:22.179Z,15.29
2018-05-07T00:16:02.715Z,15.27
2018-05-07T00:16:43.239Z,15.38
2018-05-07T00:17:23.803Z,15.28
2018-05-07T00:18:04.284Z,15.32
2018-05-07T00:18:44.813Z,15.21
2018-05-07T00:19:25.325Z,15.25
2018-05-07T00:20:05.835Z,15.25
2018-05-07T00:20:46.373Z,15.17
2018-05-07T00:21:26.866Z,15.2
2018-05-07T00:22:07.388Z,15.25
2018-05-07T00:22:47.919Z,15.19
2018-05-07T00:23:28.434Z,15.17
2018-05-07T00:24:08.965Z,15.14
2018-05-07T00:24:49.494Z,15.14
2018-05-07T00:25:30.010Z,15.13
2018-05-07T00:26:10.547Z,15.07
2018-05-07T00:26:51.078Z,15.11
2018-05-07T00:27:31.603Z,15.1
2018-05-07T00:28:12.114Z,15.1
2018-05-07T00:28:52.635Z,15.01
2018-05-07T00:29:33.160Z,15.07
2018-05-07T00:30:13.681Z,15.07
2018-05-07T00:30:54.210Z,14.98
2018-05-07T00:31:34.732Z,15.02
2018-05-07T00:32:15.248Z,14.96
2018-05-07T00:32:55.763Z,14.98
2018-05-07T00:33:36.287Z,15.01
2018-05-07T00:34:16.811Z,14.99
2018-05-07T00:34:57.346Z,14.99
2018-05-07T00:35:37.851Z,15.01
2018-05-07T00:36:18.381Z,14.91
2018-05-07T00:36:58.902Z,14.95
2018-05-07T00:37:39.433Z,14.88
2018-05-07T00:38:19.972Z,14.92
2018-05-07T00:39:00.498Z,14.92
2018-05-07T00:39:41.021Z,14.96
2018-05-07T00:40:21.549Z,14.83
2018-05-07T00:41:02.075Z,14.92
2018-05-07T00:41:42.604Z,14.77
2018-05-07T00:42:23.131Z,14.81
2018-05-07T00:43:03.658Z,14.83
2018-05-07T00:43:44.197Z,14.88
2018-05-07T00:44:24.715Z,14.83
2018-05-07T00:45:05.239Z,14.91
2018-05-07T00:45:45.773Z,14.88
2018-05-07T00:46:26.287Z,14.83
2018-05-07T00:47:06.818Z,14.89
2018-05-07T00:47:47.346Z,14.92
2018-05-07T00:48:27.873Z,14.83
2018-05-07T00:49:08.389Z,14.75
2018-05-07T00:49:48.912Z,14.81
2018-05-07T00:50:29.450Z,14.72
2018-05-07T00:51:09.949Z,14.7
2018-05-07T00:51:50.473Z,14.8
2018-05-07T00:52:30.987Z,14.69
2018-05-07T00:53:11.507Z,14.81
2018-05-07T00:53:52.039Z,14.72
2018-05-07T00:54:32.797Z,14.8
2018-05-07T00:55:13.321Z,14.73
2018-05-07T00:55:53.855Z,14.73
2018-05-07T00:56:34.376Z,14.72
2018-05-07T00:57:14.906Z,14.65
2018-05-07T00:57:55.428Z,14.64
2018-05-07T00:58:35.942Z,14.65
2018-05-07T00:59:16.469Z,14.68
2018-05-07T00:59:56.994Z,14.64
2018-05-07T01:00:37.528Z,14.6
2018-05-07T01:01:18.056Z,14.55
2018-05-07T01:01:58.573Z,14.64
2018-05-07T01:02:39.110Z,14.51
2018-05-07T01:03:19.632Z,14.58
2018-05-07T01:04:00.152Z,14.57
2018-05-07T01:04:40.671Z,14.62
2018-05-07T01:05:21.196Z,14.64
2018-05-07T01:06:01.730Z,14.64
2018-05-07T01:06:42.260Z,14.62
2018-05-07T01:07:22.784Z,14.54
2018-05-07T01:08:03.315Z,14.58
2018-05-07T01:08:43.838Z,14.55
2018-05-07T01:09:24.363Z,14.57
2018-05-07T01:10:04.890Z,14.5
2018-05-07T01:10:45.415Z,14.52
2018-05-07T01:11:25.971Z,14.6
2018-05-07T01:12:06.445Z,14.51
2018-05-07T01:12:47.011Z,14.61
2018-05-07T01:13:27.477Z,14.55
2018-05-07T01:14:08.002Z,14.51
2018-05-07T01:14:48.515Z,14.5
2018-05-07T01:15:29.041Z,14.52
2018-05-07T01:16:09.640Z,14.47
2018-05-07T01:16:50.089Z,14.47
2018-05-07T01:17:30.661Z,14.42
2018-05-07T01:18:11.132Z,14.46
2018-05-07T01:18:51.665Z,14.45
2018-05-07T01:19:32.195Z,14.4
2018-05-07T01:20:12.722Z,14.43
2018-05-07T01:20:53.248Z,14.39
2018-05-07T01:21:33.765Z,14.42
2018-05-07T01:22:14.277Z,14.36
2018-05-07T01:22:54.807Z,14.4
2018-05-07T01:23:35.327Z,14.4
2018-05-07T01:24:15.849Z,14.36
2018-05-07T01:24:56.366Z,14.4
2018-05-07T01:25:36.899Z,14.37
2018-05-07T01:26:17.412Z,14.29
2018-05-07T01:26:57.940Z,14.37
2018-05-07T01:27:38.456Z,14.36
2018-05-07T01:28:18.979Z,14.27
2018-05-07T01:28:59.486Z,14.35
2018-05-07T01:29:40.030Z,14.21
2018-05-07T01:30:20.531Z,14.25
2018-05-07T01:31:01.069Z,14.24
2018-05-07T01:31:41.569Z,14.22
2018-05-07T01:32:22.077Z,14.25
2018-05-07T01:33:02.592Z,14.25
2018-05-07T01:33:43.111Z,14.15
2018-05-07T01:34:23.638Z,14.15
2018-05-07T01:35:04.156Z,14.25
2018-05-07T01:35:44.669Z,14.22
2018-05-07T01:36:25.196Z,14.18
2018-05-07T01:37:05.718Z,14.17
2018-05-07T01:37:46.249Z,14.1
2018-05-07T01:38:26.770Z,14.15
2018-05-07T01:39:07.286Z,14.15
2018-05-07T01:39:47.814Z,14.17
2018-05-07T01:40:28.337Z,14.03
2018-05-07T01:41:08.851Z,14
2018-05-07T01:41:49.362Z,14.04
2018-05-07T01:42:29.890Z,14.06
2018-05-07T01:43:10.392Z,14.06
2018-05-07T01:43:50.914Z,14.03
2018-05-07T01:44:31.441Z,14.03
2018-05-07T01:45:11.962Z,14.02
2018-05-07T01:45:52.488Z,14.02
2018-05-07T01:46:33.002Z,14.02
2018-05-07T01:47:13.526Z,13.92
2018-05-07T01:47:54.042Z,13.88
2018-05-07T01:48:34.565Z,13.96
2018-05-07T01:49:15.093Z,13.89
2018-05-07T01:49:55.617Z,13.91
2018-05-07T01:50:36.114Z,13.91
2018-05-07T01:51:16.640Z,13.91
2018-05-07T01:51:57.151Z,14.03
2018-05-07T01:52:37.673Z,13.91
2018-05-07T01:53:18.198Z,13.96
2018-05-07T01:53:58.741Z,13.99
2018-05-07T01:54:39.371Z,13.91
2018-05-07T01:55:19.900Z,13.89
2018-05-07T01:56:00.440Z,13.85
2018-05-07T01:56:40.966Z,13.97
2018-05-07T01:57:21.493Z,13.87
2018-05-07T01:58:02.006Z,13.89
2018-05-07T01:58:42.545Z,13.91
2018-05-07T01:59:23.076Z,13.89
2018-05-07T02:00:03.598Z,13.95
2018-05-07T02:00:44.124Z,13.91
2018-05-07T02:01:24.642Z,13.89
2018-05-07T02:02:05.176Z,13.87
2018-05-07T02:02:45.697Z,13.88
2018-05-07T02:03:26.216Z,13.89
2018-05-07T02:04:06.731Z,13.87
2018-05-07T02:04:47.240Z,13.87
2018-05-07T02:05:27.763Z,13.96
2018-05-07T02:06:08.276Z,13.89
2018-05-07T02:06:48.803Z,13.91
2018-05-07T02:07:29.324Z,13.85
2018-05-07T02:08:09.862Z,13.88
2018-05-07T02:08:50.372Z,13.84
2018-05-07T02:09:30.900Z,13.85
2018-05-07T02:10:11.445Z,13.84
2018-05-07T02:10:51.943Z,13.87
2018-05-07T02:11:32.478Z,13.82
2018-05-07T02:12:12.995Z,13.91
2018-05-07T02:12:53.517Z,13.85
2018-05-07T02:13:34.050Z,13.79
2018-05-07T02:14:14.570Z,13.84
2018-05-07T02:14:55.094Z,13.77
2018-05-07T02:15:35.619Z,13.75
2018-05-07T02:16:16.143Z,13.7
2018-05-07T02:16:56.667Z,13.81
2018-05-07T02:17:37.204Z,13.81
2018-05-07T02:18:17.712Z,13.77
2018-05-07T02:18:58.241Z,13.75
2018-05-07T02:19:38.764Z,13.77
2018-05-07T02:20:19.292Z,13.78
2018-05-07T02:20:59.821Z,13.67
2018-05-07T02:21:40.342Z,13.73
2018-05-07T02:22:20.870Z,13.7
2018-05-07T02:23:01.400Z,13.75
2018-05-07T02:23:41.928Z,13.64
2018-05-07T02:24:22.467Z,13.71
2018-05-07T02:25:02.982Z,13.67
2018-05-07T02:25:43.503Z,13.6
2018-05-07T02:26:24.030Z,13.62
2018-05-07T02:27:04.557Z,13.67
2018-05-07T02:27:45.084Z,13.67
2018-05-07T02:28:25.604Z,13.63
2018-05-07T02:29:06.122Z,13.59
2018-05-07T02:29:46.642Z,13.6
2018-05-07T02:30:27.159Z,13.64
2018-05-07T02:31:07.674Z,13.63
2018-05-07T02:31:48.208Z,13.59
2018-05-07T02:32:28.721Z,13.54
2018-05-07T02:33:09.243Z,13.54
2018-05-07T02:33:49.780Z,13.54
2018-05-07T02:34:30.301Z,13.57
2018-05-07T02:35:10.833Z,13.49
2018-05-07T02:35:51.351Z,13.54
2018-05-07T02:36:31.875Z,13.46
2018-05-07T02:37:12.399Z,13.48
2018-05-07T02:37:52.927Z,13.51
2018-05-07T02:38:33.453Z,13.45
2018-05-07T02:39:13.974Z,13.45
2018-05-07T02:39:54.481Z,13.52
2018-05-07T02:40:34.999Z,13.46
2018-05-07T02:41:15.515Z,13.48
2018-05-07T02:41:56.040Z,13.46
2018-05-07T02:42:36.562Z,13.39
2018-05-07T02:43:17.090Z,13.38
2018-05-07T02:43:57.615Z,13.39
2018-05-07T02:44:38.132Z,13.39
2018-05-07T02:45:18.648Z,13.32
2018-05-07T02:45:59.143Z,13.39
2018-05-07T02:46:39.657Z,13.36
2018-05-07T02:47:20.163Z,13.38
2018-05-07T02:48:00.659Z,13.36
2018-05-07T02:48:41.182Z,13.44
2018-05-07T02:49:21.696Z,13.29
2018-05-07T02:50:02.209Z,13.41
2018-05-07T02:50:42.737Z,13.28
2018-05-07T02:51:23.264Z,13.33
2018-05-07T02:52:03.779Z,13.33
2018-05-07T02:52:44.294Z,13.3
2018-05-07T02:53:24.830Z,13.29
2018-05-07T02:54:05.314Z,13.32
2018-05-07T02:54:45.820Z,13.3
2018-05-07T02:55:26.367Z,13.32
2018-05-07T02:56:06.860Z,13.26
2018-05-07T02:56:47.375Z,13.23
2018-05-07T02:57:27.894Z,13.22
2018-05-07T02:58:08.399Z,13.26
2018-05-07T02:58:48.912Z,13.25
2018-05-07T02:59:29.431Z,13.26
2018-05-07T03:00:09.952Z,13.22
2018-05-07T03:00:50.462Z,13.2
2018-05-07T03:01:30.980Z,13.23
2018-05-07T03:02:11.491Z,13.11
2018-05-07T03:02:51.996Z,13.14
2018-05-07T03:03:32.528Z,13.17
2018-05-07T03:04:13.063Z,13.12
2018-05-07T03:04:53.576Z,13.12
2018-05-07T03:05:34.104Z,13.15
2018-05-07T03:06:14.633Z,13.08
2018-05-07T03:06:55.165Z,13.14
2018-05-07T03:07:35.688Z,13.1
2018-05-07T03:08:16.274Z,13.07
2018-05-07T03:08:56.753Z,13.07
2018-05-07T03:09:37.269Z,13.08
2018-05-07T03:10:17.832Z,13.05
2018-05-07T03:10:58.369Z,13.04
2018-05-07T03:11:38.888Z,13.04
2018-05-07T03:12:19.421Z,13
2018-05-07T03:12:59.946Z,12.96
2018-05-07T03:13:40.478Z,13.04
2018-05-07T03:14:21.018Z,13.07
2018-05-07T03:15:01.552Z,13.07
2018-05-07T03:15:42.079Z,12.95
2018-05-07T03:16:22.601Z,12.95
2018-05-07T03:17:03.180Z,12.95
2018-05-07T03:17:43.707Z,12.95
2018-05-07T03:18:24.220Z,12.9
2018-05-07T03:19:04.742Z,12.93
2018-05-07T03:19:45.264Z,12.96
2018-05-07T03:20:25.791Z,12.9
2018-05-07T03:21:06.307Z,12.87
2018-05-07T03:21:46.805Z,12.92
2018-05-07T03:22:27.309Z,12.83
2018-05-07T03:23:07.827Z,13.01
2018-05-07T03:23:48.331Z,12.95
2018-05-07T03:24:28.853Z,12.86
2018-05-07T03:25:09.385Z,12.83
2018-05-07T03:25:49.903Z,12.87
2018-05-07T03:26:30.423Z,12.83
2018-05-07T03:27:10.942Z,12.82
2018-05-07T03:27:51.472Z,12.89
2018-05-07T03:28:32.271Z,12.77
2018-05-07T03:29:12.886Z,12.89
2018-05-07T03:29:53.310Z,12.79
2018-05-07T03:30:33.811Z,12.83
2018-05-07T03:31:14.971Z,12.78
2018-05-07T03:31:55.378Z,12.78
2018-05-07T03:32:36.221Z,12.85
2018-05-07T03:33:17.235Z,12.79
2018-05-07T03:33:57.885Z,12.85
2018-05-07T03:34:38.526Z,12.89
2018-05-07T03:35:19.198Z,12.87
2018-05-07T03:35:59.646Z,12.85
2018-05-07T03:36:40.229Z,12.89
2018-05-07T03:37:21.423Z,12.86
2018-05-07T03:38:02.276Z,12.89
2018-05-07T03:38:42.941Z,12.89
2018-05-07T03:39:23.740Z,12.87
2018-05-07T03:40:04.328Z,12.86
2018-05-07T03:40:45.222Z,12.87
2018-05-07T03:41:25.744Z,12.89
2018-05-07T03:42:07.270Z,12.87
2018-05-07T03:42:47.813Z,12.89
2018-05-07T03:43:28.467Z,12.77
2018-05-07T03:44:08.961Z,12.9
2018-05-07T03:44:49.467Z,12.82
2018-05-07T03:45:29.952Z,12.79
2018-05-07T03:46:10.425Z,12.86
2018-05-07T03:46:50.947Z,12.77
2018-05-07T03:47:31.448Z,12.79
2018-05-07T03:48:11.941Z,12.79
2018-05-07T03:48:52.418Z,12.82
2018-05-07T03:49:32.906Z,12.78
2018-05-07T03:50:13.428Z,12.77
2018-05-07T03:50:53.955Z,12.67
2018-05-07T03:51:34.456Z,12.7
2018-05-07T03:52:15.001Z,12.67
2018-05-07T03:52:55.532Z,12.72
2018-05-07T03:53:36.021Z,12.72
2018-05-07T03:54:16.730Z,12.71
2018-05-07T03:54:57.229Z,12.7
2018-05-07T03:55:37.760Z,12.7
2018-05-07T03:56:18.275Z,12.7
2018-05-07T03:56:58.788Z,12.71
2018-05-07T03:57:39.357Z,12.65
2018-05-07T03:58:19.831Z,12.67
2018-05-07T03:59:00.348Z,12.6
2018-05-07T03:59:40.887Z,12.68
2018-05-07T04:00:21.379Z,12.6
2018-05-07T04:01:01.906Z,12.71
2018-05-07T04:01:42.443Z,12.7
2018-05-07T04:02:22.965Z,12.71
2018-05-07T04:03:03.486Z,12.7
2018-05-07T04:03:44.006Z,12.71
2018-05-07T04:04:24.537Z,12.64
2018-05-07T04:05:05.071Z,12.64
2018-05-07T04:05:45.601Z,12.72
2018-05-07T04:06:26.122Z,12.68
2018-05-07T04:07:06.645Z,12.78
2018-05-07T04:07:47.213Z,12.82
2018-05-07T04:08:27.695Z,12.77
2018-05-07T04:09:08.223Z,12.83
2018-05-07T04:09:48.748Z,12.78
2018-05-07T04:10:29.281Z,12.78
2018-05-07T04:11:09.799Z,12.79
2018-05-07T04:11:50.323Z,12.85
2018-05-07T04:12:30.852Z,12.83
2018-05-07T04:13:11.453Z,12.86
2018-05-07T04:13:51.904Z,12.86
2018-05-07T04:14:32.432Z,12.78
2018-05-07T04:15:12.959Z,12.85
2018-05-07T04:15:53.505Z,12.83
2018-05-07T04:16:33.995Z,12.89
2018-05-07T04:17:14.525Z,12.77
2018-05-07T04:17:55.056Z,12.82
2018-05-07T04:18:35.582Z,12.75
2018-05-07T04:19:16.108Z,12.82
2018-05-07T04:19:56.635Z,12.87
2018-05-07T04:20:37.157Z,12.75
2018-05-07T04:21:17.679Z,12.85
2018-05-07T04:21:58.205Z,12.79
2018-05-07T04:22:38.737Z,12.89
2018-05-07T04:23:19.267Z,12.85
2018-05-07T04:23:59.787Z,12.85
2018-05-07T04:24:40.321Z,12.9
2018-05-07T04:25:20.845Z,12.89
2018-05-07T04:26:01.376Z,12.83
2018-05-07T04:26:41.900Z,12.85
2018-05-07T04:27:22.431Z,12.83
2018-05-07T04:28:02.957Z,12.87
2018-05-07T04:28:43.470Z,12.96
2018-05-07T04:29:24.001Z,12.96
2018-05-07T04:30:04.533Z,12.9
2018-05-07T04:30:45.065Z,12.89
2018-05-07T04:31:25.586Z,12.92
2018-05-07T04:32:06.114Z,12.9
2018-05-07T04:32:46.628Z,12.93
2018-05-07T04:33:27.157Z,13
2018-05-07T04:34:07.678Z,12.96
2018-05-07T04:34:48.203Z,13.07
2018-05-07T04:35:28.737Z,12.9
2018-05-07T04:36:09.261Z,13
2018-05-07T04:36:49.824Z,13.03
2018-05-07T04:37:30.312Z,12.93
2018-05-07T04:38:10.837Z,13.03
2018-05-07T04:38:51.362Z,13.03
2018-05-07T04:39:31.877Z,13
2018-05-07T04:40:12.406Z,13.03
2018-05-07T04:40:52.935Z,13.04
2018-05-07T04:41:33.457Z,13.08
2018-05-07T04:42:13.982Z,13.04
2018-05-07T04:42:54.507Z,13.08
2018-05-07T04:43:35.033Z,13.1
2018-05-07T04:44:15.570Z,13.08
2018-05-07T04:44:56.094Z,13.1
2018-05-07T04:45:36.613Z,13.12
2018-05-07T04:46:17.142Z,13.1
2018-05-07T04:46:57.661Z,13.2
2018-05-07T04:47:38.186Z,13.17
2018-05-07T04:48:18.706Z,13.11
2018-05-07T04:48:59.224Z,13.11
2018-05-07T04:49:39.738Z,13.19
2018-05-07T04:50:20.261Z,13.22
2018-05-07T04:51:00.783Z,13.26
2018-05-07T04:51:41.310Z,13.32
2018-05-07T04:52:21.835Z,13.28
2018-05-07T04:53:02.362Z,13.3
2018-05-07T04:53:42.893Z,13.33
2018-05-07T04:54:23.417Z,13.25
2018-05-07T04:55:04.016Z,13.32
2018-05-07T04:55:44.467Z,13.32
2018-05-07T04:56:24.985Z,13.45
2018-05-07T04:57:05.515Z,13.46
2018-05-07T04:57:46.044Z,13.54
2018-05-07T04:58:26.567Z,13.46
2018-05-07T04:59:07.090Z,13.45
2018-05-07T04:59:47.617Z,13.51
2018-05-07T05:00:28.145Z,13.54
2018-05-07T05:01:08.668Z,13.49
2018-05-07T05:01:49.194Z,13.64
2018-05-07T05:02:29.813Z,13.67
2018-05-07T05:03:10.253Z,13.73
2018-05-07T05:03:50.776Z,13.7
2018-05-07T05:04:31.302Z,13.67
2018-05-07T05:05:11.828Z,13.75
2018-05-07T05:05:52.356Z,13.79
2018-05-07T05:06:32.886Z,13.79
2018-05-07T05:07:13.495Z,13.91
2018-05-07T05:07:53.944Z,13.91
2018-05-07T05:08:34.471Z,13.89
2018-05-07T05:09:15.008Z,13.89
2018-05-07T05:09:55.534Z,13.92
2018-05-07T05:10:36.065Z,13.95
2018-05-07T05:11:16.592Z,13.92
2018-05-07T05:11:57.121Z,14.02
2018-05-07T05:12:37.646Z,14.03
2018-05-07T05:13:18.175Z,14.03
2018-05-07T05:13:58.707Z,14.15
2018-05-07T05:14:39.233Z,14.14
2018-05-07T05:15:19.761Z,14.1
2018-05-07T05:16:00.289Z,14.21
2018-05-07T05:16:40.814Z,14.21
2018-05-07T05:17:21.348Z,14.24
2018-05-07T05:18:01.873Z,14.32
2018-05-07T05:18:42.394Z,14.35
2018-05-07T05:19:22.926Z,14.43
2018-05-07T05:20:03.450Z,14.46
2018-05-07T05:20:43.983Z,14.43
2018-05-07T05:21:24.529Z,14.52
2018-05-07T05:22:05.039Z,14.55
2018-05-07T05:22:45.572Z,14.55
2018-05-07T05:23:26.097Z,14.62
2018-05-07T05:24:06.628Z,14.65
2018-05-07T05:24:47.163Z,14.64
2018-05-07T05:25:27.692Z,14.7
2018-05-07T05:26:08.225Z,14.78
2018-05-07T05:26:48.750Z,14.69
2018-05-07T05:27:29.282Z,14.75
2018-05-07T05:28:09.806Z,14.83
2018-05-07T05:28:50.337Z,14.8
2018-05-07T05:29:30.865Z,14.81
2018-05-07T05:30:11.384Z,14.91
2018-05-07T05:30:51.915Z,14.88
2018-05-07T05:31:32.444Z,15.01
2018-05-07T05:32:12.972Z,15.03
2018-05-07T05:32:53.494Z,14.99
2018-05-07T05:33:34.023Z,15.07
2018-05-07T05:34:14.551Z,15.11
2018-05-07T05:34:55.080Z,15.2
2018-05-07T05:35:35.606Z,15.13
2018-05-07T05:36:16.129Z,15.2
2018-05-07T05:36:56.659Z,15.21
2018-05-07T05:37:37.182Z,15.23
2018-05-07T05:38:17.718Z,15.25
2018-05-07T05:38:58.241Z,15.38
2018-05-07T05:39:38.772Z,15.31
2018-05-07T05:40:19.302Z,15.38
2018-05-07T05:40:59.834Z,15.46
2018-05-07T05:41:40.360Z,15.5
2018-05-07T05:42:20.892Z,15.6
2018-05-07T05:43:01.417Z,15.6
2018-05-07T05:43:42.015Z,15.69
2018-05-07T05:44:22.473Z,15.68
2018-05-07T05:45:03.006Z,15.71
2018-05-07T05:45:43.534Z,15.76
2018-05-07T05:46:24.064Z,15.83
2018-05-07T05:47:04.619Z,15.89
2018-05-07T05:47:45.123Z,16
2018-05-07T05:48:25.657Z,16.08
2018-05-07T05:49:06.181Z,16.15
2018-05-07T05:49:46.708Z,16.08
2018-05-07T05:50:27.242Z,16.2
2018-05-07T05:51:07.767Z,16.24
2018-05-07T05:51:48.300Z,16.33
2018-05-07T05:52:28.825Z,16.41
2018-05-07T05:53:09.353Z,16.53
2018-05-07T05:53:49.881Z,16.52
2018-05-07T05:54:30.404Z,16.68
2018-05-07T05:55:10.928Z,16.79
2018-05-07T05:55:51.468Z,16.85
2018-05-07T05:56:32.024Z,17.07
2018-05-07T05:57:12.521Z,17.07
2018-05-07T05:57:53.044Z,17.22
2018-05-07T05:58:33.574Z,17.33
2018-05-07T05:59:14.098Z,17.51
2018-05-07T05:59:54.626Z,17.68
2018-05-07T06:00:35.153Z,17.86
2018-05-07T06:01:15.681Z,17.79
2018-05-07T06:01:56.209Z,18.02
2018-05-07T06:02:36.738Z,18.23
2018-05-07T06:03:17.264Z,18.25
2018-05-07T06:03:57.874Z,18.45
2018-05-07T06:04:38.323Z,18.54
2018-05-07T06:05:18.847Z,18.67
2018-05-07T06:05:59.368Z,18.85
2018-05-07T06:06:39.896Z,19.06
2018-05-07T06:07:20.422Z,18.99
2018-05-07T06:08:00.954Z,19.13
2018-05-07T06:08:41.482Z,19.26
2018-05-07T06:09:22.011Z,19.46
2018-05-07T06:10:02.546Z,19.56
2018-05-07T06:10:43.075Z,19.65
2018-05-07T06:11:23.602Z,19.74
2018-05-07T06:12:04.132Z,19.94
2018-05-07T06:12:44.661Z,20.14
2018-05-07T06:13:25.189Z,20.23
2018-05-07T06:14:05.719Z,20.29
2018-05-07T06:14:46.408Z,20.52
2018-05-07T06:15:26.782Z,20.58
2018-05-07T06:16:07.307Z,20.62
2018-05-07T06:16:47.841Z,20.77
2018-05-07T06:17:28.371Z,20.82
2018-05-07T06:18:08.898Z,21.06
2018-05-07T06:18:49.425Z,21.14
2018-05-07T06:19:29.949Z,21.22
2018-05-07T06:20:10.477Z,21.17
2018-05-07T06:20:50.996Z,21.34
2018-05-07T06:21:31.527Z,21.38
2018-05-07T06:22:12.059Z,21.44
2018-05-07T06:22:52.574Z,21.69
2018-05-07T06:23:33.122Z,21.75
2018-05-07T06:24:13.654Z,21.82
2018-05-07T06:24:54.183Z,21.92
2018-05-07T06:25:34.717Z,21.91
2018-05-07T06:26:15.251Z,22.02
2018-05-07T06:26:55.779Z,22.12
2018-05-07T06:27:36.308Z,22.15
2018-05-07T06:28:16.838Z,22.27
2018-05-07T06:28:57.369Z,22.37
2018-05-07T06:29:37.898Z,22.39
2018-05-07T06:30:18.429Z,22.42
2018-05-07T06:30:58.958Z,22.52
2018-05-07T06:31:39.494Z,22.52
2018-05-07T06:32:20.015Z,22.73
2018-05-07T06:33:00.527Z,22.68
2018-05-07T06:33:41.040Z,22.83
2018-05-07T06:34:21.604Z,22.85
2018-05-07T06:35:02.096Z,23.01
2018-05-07T06:35:42.610Z,23.15
2018-05-07T06:36:23.122Z,23.17
2018-05-07T06:37:03.607Z,23.31
2018-05-07T06:37:44.118Z,23.46
2018-05-07T06:38:24.635Z,23.5
2018-05-07T06:39:05.160Z,23.54
2018-05-07T06:39:45.686Z,23.72
2018-05-07T06:40:26.216Z,23.85
2018-05-07T06:41:06.739Z,24
2018-05-07T06:41:47.283Z,24.12
2018-05-07T06:42:27.884Z,24.16
2018-05-07T06:43:08.328Z,24.22
2018-05-07T06:43:48.857Z,24.4
2018-05-07T06:44:29.376Z,24.52
2018-05-07T06:45:09.895Z,24.64
2018-05-07T06:45:50.478Z,24.71
2018-05-07T06:46:30.942Z,24.96
2018-05-07T06:47:11.482Z,25.09
2018-05-07T06:47:51.965Z,25.27
2018-05-07T06:48:32.499Z,25.43
2018-05-07T06:49:13.023Z,25.65
2018-05-07T06:49:53.552Z,25.9
2018-05-07T06:50:34.078Z,26.05
2018-05-07T06:51:14.605Z,26.18
2018-05-07T06:51:55.139Z,26.35
2018-05-07T06:52:35.661Z,26.51
2018-05-07T06:53:16.211Z,26.69
2018-05-07T06:53:56.729Z,26.94
2018-05-07T06:54:37.253Z,27.13
2018-05-07T06:55:17.775Z,27.47
2018-05-07T06:55:58.313Z,27.59
2018-05-07T06:56:38.835Z,27.79
2018-05-07T06:57:19.370Z,28.02
2018-05-07T06:57:59.898Z,28.3
2018-05-07T06:58:40.435Z,28.51
2018-05-07T06:59:20.954Z,28.89
2018-05-07T07:00:01.476Z,29.24
2018-05-07T07:00:41.997Z,29.68
2018-05-07T07:01:22.525Z,30.22
2018-05-07T07:02:03.105Z,30.51
2018-05-07T07:02:43.718Z,30.84
2018-05-07T07:03:24.114Z,31.29
2018-05-07T07:04:04.698Z,31.56
2018-05-07T07:04:45.171Z,32.07
2018-05-07T07:05:25.702Z,32.47
2018-05-07T07:06:06.230Z,32.96
2018-05-07T07:06:46.760Z,33.61
2018-05-07T07:07:27.307Z,34.21
2018-05-07T07:08:08.016Z,34.94
2018-05-07T07:08:48.359Z,35.56
2018-05-07T07:09:28.892Z,36.35
2018-05-07T07:10:09.432Z,37.06
2018-05-07T07:10:49.952Z,37.63
2018-05-07T07:11:30.481Z,38.12
2018-05-07T07:12:11.014Z,38.59
2018-05-07T07:12:51.546Z,39.13
2018-05-07T07:13:32.085Z,39.48
2018-05-07T07:14:12.618Z,39.91
2018-05-07T07:14:53.130Z,40.23
2018-05-07T07:15:33.643Z,40.69
2018-05-07T07:16:14.164Z,40.98
2018-05-07T07:16:54.693Z,41.29
2018-05-07T07:17:35.225Z,41.78
2018-05-07T07:18:15.752Z,41.98
2018-05-07T07:18:56.328Z,42.35
2018-05-07T07:19:36.870Z,42.73
2018-05-07T07:20:17.401Z,43.07
2018-05-07T07:20:58.011Z,43.31
2018-05-07T07:21:38.464Z,43.6
2018-05-07T07:22:19.007Z,43.91
2018-05-07T07:22:59.533Z,44.06
2018-05-07T07:23:40.063Z,44.22
2018-05-07T07:24:20.578Z,44.32
2018-05-07T07:25:01.112Z,44.47
2018-05-07T07:25:41.642Z,44.5
2018-05-07T07:26:22.186Z,44.7
2018-05-07T07:27:02.719Z,44.71
2018-05-07T07:27:43.248Z,44.51
2018-05-07T07:28:23.778Z,44.55
2018-05-07T07:29:04.314Z,44.68
2018-05-07T07:29:44.845Z,44.71
2018-05-07T07:30:25.378Z,45.07
2018-05-07T07:31:05.910Z,45.45
2018-05-07T07:31:46.434Z,45.86
2018-05-07T07:32:26.960Z,46.47
2018-05-07T07:33:07.482Z,47.14
2018-05-07T07:33:48.067Z,47.75
2018-05-07T07:34:28.543Z,48.23
2018-05-07T07:35:09.069Z,48.81
2018-05-07T07:35:49.601Z,49.39
2018-05-07T07:36:30.133Z,49.79
2018-05-07T07:37:10.670Z,50.09
2018-05-07T07:37:51.207Z,50.33
2018-05-07T07:38:31.749Z,50.7
2018-05-07T07:39:12.278Z,51
2018-05-07T07:39:52.819Z,51.34
2018-05-07T07:40:33.357Z,51.58
2018-05-07T07:41:13.888Z,51.85
2018-05-07T07:41:54.431Z,52.1
2018-05-07T07:42:34.973Z,52.48
2018-05-07T07:43:15.510Z,52.82
2018-05-07T07:43:56.047Z,53.24
2018-05-07T07:44:36.592Z,53.62
2018-05-07T07:45:17.126Z,53.84
2018-05-07T07:45:57.655Z,54.06
2018-05-07T07:46:38.191Z,54.2
2018-05-07T07:47:18.734Z,54.25
2018-05-07T07:47:59.265Z,54.54
2018-05-07T07:48:39.788Z,54.67
2018-05-07T07:49:20.326Z,54.95
2018-05-07T07:50:00.857Z,55.24
2018-05-07T07:50:41.404Z,55.47
2018-05-07T07:51:21.942Z,55.77
2018-05-07T07:52:02.470Z,55.97
2018-05-07T07:52:43.002Z,55.99
2018-05-07T07:53:23.576Z,56.26
2018-05-07T07:54:04.027Z,56.39
2018-05-07T07:54:44.780Z,56.73
2018-05-07T07:55:25.307Z,56.87
2018-05-07T07:56:05.849Z,57.12
2018-05-07T07:56:46.389Z,57.38
2018-05-07T07:57:26.919Z,57.67
2018-05-07T07:58:07.464Z,58.01
2018-05-07T07:58:48.001Z,58.31
2018-05-07T07:59:28.533Z,58.58
2018-05-07T08:00:09.072Z,58.91
2018-05-07T08:00:49.605Z,59.16
2018-05-07T08:01:30.142Z,59.53
2018-05-07T08:02:10.694Z,59.91
2018-05-07T08:02:51.212Z,60.09
2018-05-07T08:03:31.722Z,60.22
2018-05-07T08:04:12.269Z,60.46
2018-05-07T08:04:52.781Z,60.65
2018-05-07T08:05:33.319Z,60.77
2018-05-07T08:06:13.917Z,60.99
2018-05-07T08:06:54.389Z,61.19
2018-05-07T08:07:34.907Z,61.41
2018-05-07T08:08:15.446Z,61.63
2018-05-07T08:08:55.939Z,61.78
2018-05-07T08:09:36.448Z,61.96
2018-05-07T08:10:16.985Z,62.31
2018-05-07T08:10:57.565Z,62.53
2018-05-07T08:11:38.031Z,62.74
2018-05-07T08:12:18.716Z,62.84
2018-05-07T08:12:59.073Z,62.93
2018-05-07T08:13:39.571Z,63.07
2018-05-07T08:14:20.098Z,63.17
2018-05-07T08:15:00.601Z,63.17
2018-05-07T08:15:41.123Z,63.25
2018-05-07T08:16:21.669Z,63.17
2018-05-07T08:17:02.196Z,63.31
2018-05-07T08:17:42.734Z,63.29
2018-05-07T08:18:23.306Z,63.46
2018-05-07T08:19:03.822Z,63.72
2018-05-07T08:19:44.379Z,63.81
2018-05-07T08:20:24.920Z,63.98
2018-05-07T08:21:05.459Z,63.97
2018-05-07T08:21:45.999Z,64.1
2018-05-07T08:22:26.545Z,64.11
2018-05-07T08:23:07.087Z,64.23
2018-05-07T08:23:47.632Z,64.26
2018-05-07T08:24:28.176Z,64.25
2018-05-07T08:25:08.719Z,64.44
2018-05-07T08:25:49.264Z,64.52
2018-05-07T08:26:29.802Z,64.75
2018-05-07T08:27:10.351Z,64.8
2018-05-07T08:27:50.886Z,64.82
2018-05-07T08:28:31.435Z,64.89
2018-05-07T08:29:11.975Z,65.07
2018-05-07T08:29:52.510Z,65.28
2018-05-07T08:30:33.147Z,65.33
2018-05-07T08:31:13.598Z,65.52
2018-05-07T08:31:54.140Z,65.59
2018-05-07T08:32:34.684Z,65.7
2018-05-07T08:33:15.228Z,65.74
2018-05-07T08:33:55.764Z,65.78
2018-05-07T08:34:36.309Z,65.83
2018-05-07T08:35:16.858Z,65.78
2018-05-07T08:35:57.400Z,65.64
2018-05-07T08:36:37.975Z,65.55
2018-05-07T08:37:18.483Z,65.4
2018-05-07T08:37:59.063Z,65.29
2018-05-07T08:38:39.601Z,65.23
2018-05-07T08:39:20.131Z,65.12
2018-05-07T08:40:00.676Z,64.97
2018-05-07T08:40:41.225Z,64.93
2018-05-07T08:41:21.761Z,64.88
2018-05-07T08:42:02.291Z,64.89
2018-05-07T08:42:42.843Z,64.81
2018-05-07T08:43:23.388Z,64.88
2018-05-07T08:44:03.920Z,64.93